Galeton, Colorado
Current Conditions -  °F | °C
As of 2:55 PM on Friday 31 Oct 2014 (Local Time) from KGXY Reporting Station
Clear Clear  
Wind Chill: 13°   Ceiling: Unl
Heat Index: 13°   Visibility: 10mi
Dew Point: -1°   Wind: 5mph
Humidity: 38%   Direction: 290°WNW
Pressure: 30.15"   Gusts: NA
Location:  40.52°N, 104.59°W
Report Text: KGXY 312055Z AUTO 29004KT 10SM CLR 13/M01 A3015 RMK AO1 57047
Loading
Personal Weather Stations






























Interactive Weather Map
Tropical Storm Tracking
New forecast layout! Learn more

10-Day Weather Forecast

Advertisements
Track Severe Weather on mobile